createdAt,value
2022-12-18T00:00:50.831Z,9.99
2022-12-18T00:02:23.171Z,9.92
2022-12-18T00:03:55.616Z,9.88
2022-12-18T00:05:27.365Z,9.83
2022-12-18T00:06:58.918Z,9.79
2022-12-18T00:08:30.451Z,9.76
2022-12-18T00:10:02.154Z,9.75
2022-12-18T00:11:33.707Z,9.74
2022-12-18T00:13:08.355Z,9.77
2022-12-18T00:14:42.415Z,9.81
2022-12-18T00:16:15.140Z,9.84
2022-12-18T00:17:46.847Z,9.84
2022-12-18T00:19:18.398Z,9.80
2022-12-18T00:20:50.799Z,9.78
2022-12-18T00:22:22.350Z,9.75
2022-12-18T00:23:53.981Z,9.78
2022-12-18T00:25:25.555Z,9.82
2022-12-18T00:26:57.194Z,9.87
2022-12-18T00:28:28.692Z,9.90
2022-12-18T00:30:00.352Z,9.91
2022-12-18T00:31:32.171Z,9.95
2022-12-18T00:33:04.020Z,9.96
2022-12-18T00:34:35.600Z,9.97
2022-12-18T00:36:11.272Z,9.98
2022-12-18T00:37:42.881Z,10.00
2022-12-18T00:39:14.563Z,9.98
2022-12-18T00:40:46.361Z,9.94
2022-12-18T00:42:47.036Z,9.84
2022-12-18T00:44:18.984Z,9.83
2022-12-18T00:45:50.596Z,9.80
2022-12-18T00:47:22.334Z,9.79
2022-12-18T00:48:53.952Z,9.79
2022-12-18T00:50:25.613Z,9.84
2022-12-18T00:51:57.149Z,9.86
2022-12-18T00:53:28.741Z,9.81
2022-12-18T00:55:05.807Z,9.71
2022-12-18T00:56:48.058Z,9.62
2022-12-18T00:58:20.466Z,9.55
2022-12-18T00:59:51.954Z,9.58
2022-12-18T01:01:23.741Z,9.60
2022-12-18T01:02:55.490Z,9.62
2022-12-18T01:04:27.102Z,9.62
2022-12-18T01:05:58.695Z,9.64
2022-12-18T01:07:30.768Z,9.67
2022-12-18T01:09:02.635Z,9.60
2022-12-18T01:10:34.142Z,9.55
2022-12-18T01:12:05.933Z,9.53
2022-12-18T01:13:37.679Z,9.50
2022-12-18T01:15:10.386Z,9.47
2022-12-18T01:16:42.003Z,9.44
2022-12-18T01:18:13.732Z,9.44
2022-12-18T01:19:45.360Z,9.46
2022-12-18T01:21:17.145Z,9.49
2022-12-18T01:22:48.704Z,9.48
2022-12-18T01:24:20.310Z,9.46
2022-12-18T01:25:51.858Z,9.41
2022-12-18T01:27:23.390Z,9.34
2022-12-18T01:28:55.454Z,9.30
2022-12-18T01:30:26.912Z,9.28
2022-12-18T01:31:58.474Z,9.25
2022-12-18T01:33:30.107Z,9.22
2022-12-18T01:35:01.725Z,9.16
2022-12-18T01:36:36.291Z,9.12
2022-12-18T01:38:08.087Z,9.08
2022-12-18T01:39:40.098Z,9.07
2022-12-18T01:41:11.834Z,9.09
2022-12-18T01:42:43.405Z,9.09
2022-12-18T01:44:33.652Z,9.04
2022-12-18T01:46:05.566Z,8.94
2022-12-18T01:47:49.863Z,8.87
2022-12-18T01:49:21.524Z,8.86
2022-12-18T01:50:53.478Z,8.85
2022-12-18T01:52:26.368Z,8.82
2022-12-18T01:53:58.210Z,8.79
2022-12-18T01:55:31.102Z,8.81
2022-12-18T01:57:02.595Z,8.79
2022-12-18T01:58:37.393Z,8.83
2022-12-18T02:00:10.443Z,8.83
2022-12-18T02:01:42.195Z,8.87
2022-12-18T02:03:13.984Z,8.89
2022-12-18T02:04:49.396Z,8.91
2022-12-18T02:06:31.863Z,8.94
2022-12-18T02:08:09.749Z,8.95
2022-12-18T02:09:59.873Z,8.95
2022-12-18T02:11:42.175Z,8.94
2022-12-18T02:13:14.885Z,8.89
2022-12-18T02:14:50.515Z,8.88
2022-12-18T02:16:28.186Z,8.93
2022-12-18T02:18:01.391Z,8.91
2022-12-18T02:19:51.590Z,8.91
2022-12-18T02:21:42.520Z,8.98
2022-12-18T02:23:40.694Z,9.03
2022-12-18T02:25:15.642Z,9.09
2022-12-18T02:26:51.240Z,9.12
2022-12-18T02:28:23.871Z,9.12
2022-12-18T02:29:58.729Z,9.08
2022-12-18T02:31:32.405Z,9.09
2022-12-18T02:33:05.248Z,9.14
2022-12-18T02:34:38.346Z,9.15
2022-12-18T02:36:09.938Z,9.12
2022-12-18T02:37:41.763Z,9.09
2022-12-18T02:39:13.614Z,9.07
2022-12-18T02:40:45.378Z,9.05
2022-12-18T02:42:17.365Z,9.02
2022-12-18T02:43:49.490Z,9.00
2022-12-18T02:45:21.387Z,8.96
2022-12-18T02:46:53.621Z,8.93
2022-12-18T02:48:26.113Z,8.85
2022-12-18T02:50:00.672Z,8.76
2022-12-18T02:51:40.212Z,8.73
2022-12-18T02:53:12.352Z,8.73
2022-12-18T02:54:47.006Z,8.70
2022-12-18T02:56:20.604Z,8.66
2022-12-18T02:57:55.777Z,8.58
2022-12-18T02:59:39.162Z,8.55
2022-12-18T03:01:16.842Z,8.52
2022-12-18T03:02:57.789Z,8.53
2022-12-18T03:04:29.298Z,8.57
2022-12-18T03:06:10.888Z,8.54
2022-12-18T03:07:44.832Z,8.49
2022-12-18T03:09:19.139Z,8.56
2022-12-18T03:10:52.049Z,8.59
2022-12-18T03:12:29.810Z,8.58
2022-12-18T03:14:01.339Z,8.53
2022-12-18T03:15:36.534Z,8.52
2022-12-18T03:17:08.807Z,8.41
2022-12-18T03:18:46.106Z,8.30
2022-12-18T03:20:19.219Z,8.23
2022-12-18T03:21:53.124Z,8.16
2022-12-18T03:23:26.680Z,8.11
2022-12-18T03:24:58.660Z,8.14
2022-12-18T03:26:30.306Z,8.17
2022-12-18T03:28:01.949Z,8.23
2022-12-18T03:29:35.182Z,8.25
2022-12-18T03:31:06.922Z,8.28
2022-12-18T03:32:43.617Z,8.31
2022-12-18T03:34:16.493Z,8.35
2022-12-18T03:35:48.366Z,8.37
2022-12-18T03:37:20.060Z,8.40
2022-12-18T03:38:51.657Z,8.44
2022-12-18T03:40:24.775Z,8.48
2022-12-18T03:42:14.715Z,8.49
2022-12-18T03:43:53.855Z,8.49
2022-12-18T03:45:25.676Z,8.45
2022-12-18T03:47:12.571Z,8.43
2022-12-18T03:48:45.429Z,8.40
2022-12-18T03:50:21.785Z,8.36
2022-12-18T03:51:58.627Z,8.33
2022-12-18T03:53:34.062Z,8.31
2022-12-18T03:55:06.405Z,8.29
2022-12-18T03:56:39.679Z,8.30
2022-12-18T03:58:11.333Z,8.27
2022-12-18T03:59:42.913Z,8.27
2022-12-18T04:01:14.804Z,8.23
2022-12-18T04:02:50.660Z,8.20
2022-12-18T04:04:22.343Z,8.16
2022-12-18T04:05:54.168Z,8.14
2022-12-18T04:07:25.654Z,8.11
2022-12-18T04:08:57.776Z,8.09
2022-12-18T04:10:29.436Z,8.02
2022-12-18T04:12:00.981Z,8.00
2022-12-18T04:13:36.287Z,7.98
2022-12-18T04:15:08.396Z,7.97
2022-12-18T04:16:40.059Z,7.96
2022-12-18T04:18:11.611Z,7.93
2022-12-18T04:19:43.201Z,7.81
2022-12-18T04:21:14.704Z,7.69
2022-12-18T04:22:46.544Z,7.60
2022-12-18T04:24:18.144Z,7.58
2022-12-18T04:25:49.790Z,7.49
2022-12-18T04:27:21.645Z,7.44
2022-12-18T04:28:53.277Z,7.42
2022-12-18T04:30:24.846Z,7.43
2022-12-18T04:31:56.433Z,7.46
2022-12-18T04:33:27.988Z,7.46
2022-12-18T04:34:59.631Z,7.47
2022-12-18T04:36:31.176Z,7.50
2022-12-18T04:38:02.807Z,7.52
2022-12-18T04:39:34.393Z,7.55
2022-12-18T04:41:06.114Z,7.58
2022-12-18T04:42:37.713Z,7.61
2022-12-18T04:44:09.697Z,7.63
2022-12-18T04:45:41.324Z,7.62
2022-12-18T04:47:12.889Z,7.61
2022-12-18T04:48:46.472Z,7.65
2022-12-18T04:50:18.110Z,7.64
2022-12-18T04:51:49.657Z,7.66
2022-12-18T04:53:21.518Z,7.65
2022-12-18T04:54:53.051Z,7.62
2022-12-18T04:56:24.859Z,7.64
2022-12-18T04:57:56.573Z,7.63
2022-12-18T04:59:28.765Z,7.61
2022-12-18T05:01:01.063Z,7.57
2022-12-18T05:02:32.880Z,7.55
2022-12-18T05:04:04.737Z,7.47
2022-12-18T05:05:36.658Z,7.48
2022-12-18T05:07:08.199Z,7.53
2022-12-18T05:08:39.695Z,7.59
2022-12-18T05:10:11.262Z,7.60
2022-12-18T05:11:42.951Z,7.56
2022-12-18T05:13:14.636Z,7.52
2022-12-18T05:14:46.117Z,7.47
2022-12-18T05:16:17.892Z,7.44
2022-12-18T05:17:49.526Z,7.45
2022-12-18T05:19:21.189Z,7.46
2022-12-18T05:20:52.972Z,7.45
2022-12-18T05:22:24.591Z,7.43
2022-12-18T05:23:56.889Z,7.41
2022-12-18T05:25:28.392Z,7.36
2022-12-18T05:26:59.936Z,7.36
2022-12-18T05:28:31.763Z,7.34
2022-12-18T05:30:03.514Z,7.29
2022-12-18T05:31:39.512Z,7.27
2022-12-18T05:33:11.576Z,7.27
2022-12-18T05:34:43.139Z,7.25
2022-12-18T05:36:14.822Z,7.29
2022-12-18T05:37:46.487Z,7.35
2022-12-18T05:39:18.761Z,7.33
2022-12-18T05:40:50.975Z,7.22
2022-12-18T05:42:22.580Z,7.19
2022-12-18T05:43:54.194Z,7.22
2022-12-18T05:45:26.411Z,7.18
2022-12-18T05:46:58.268Z,7.18
2022-12-18T05:48:29.884Z,7.11
2022-12-18T05:50:01.568Z,7.08
2022-12-18T05:51:33.314Z,7.09
2022-12-18T05:53:05.237Z,7.11
2022-12-18T05:54:36.919Z,7.12
2022-12-18T05:56:09.736Z,7.10
2022-12-18T05:57:41.370Z,7.07
2022-12-18T05:59:12.938Z,7.05
2022-12-18T06:00:45.241Z,7.01
2022-12-18T06:02:16.917Z,6.95
2022-12-18T06:03:48.709Z,6.95
2022-12-18T06:05:20.445Z,6.93
2022-12-18T06:06:52.962Z,6.92
2022-12-18T06:08:24.905Z,6.95
2022-12-18T06:09:56.620Z,6.96
2022-12-18T06:11:28.265Z,6.94
2022-12-18T06:13:00.036Z,6.96
2022-12-18T06:14:31.593Z,6.91
2022-12-18T06:16:04.491Z,6.89
2022-12-18T06:17:36.517Z,6.90
2022-12-18T06:19:08.248Z,6.88
2022-12-18T06:20:41.213Z,6.88
2022-12-18T06:22:13.194Z,6.92
2022-12-18T06:23:45.225Z,6.93
2022-12-18T06:25:17.323Z,6.92
2022-12-18T06:26:49.049Z,6.99
2022-12-18T06:28:20.602Z,7.00
2022-12-18T06:29:52.628Z,7.01
2022-12-18T06:31:25.267Z,6.95
2022-12-18T06:32:57.884Z,6.90
2022-12-18T06:34:29.573Z,6.88
2022-12-18T06:36:04.722Z,6.89
2022-12-18T06:37:36.382Z,6.85
2022-12-18T06:39:07.932Z,6.81
2022-12-18T06:40:40.831Z,6.83
2022-12-18T06:42:12.462Z,6.85
2022-12-18T06:43:44.313Z,6.85
2022-12-18T06:45:16.294Z,6.86
2022-12-18T06:46:48.363Z,6.89
2022-12-18T06:48:23.545Z,6.91
2022-12-18T06:50:00.599Z,6.96
2022-12-18T06:51:32.559Z,7.00
2022-12-18T06:53:06.082Z,6.96
2022-12-18T06:54:39.064Z,6.83
2022-12-18T06:56:11.205Z,6.83
2022-12-18T06:57:42.894Z,6.83
2022-12-18T06:59:14.693Z,6.88
2022-12-18T07:00:46.543Z,6.87
2022-12-18T07:02:18.757Z,6.87
2022-12-18T07:03:54.864Z,6.94
2022-12-18T07:05:26.313Z,6.90
2022-12-18T07:06:58.624Z,6.92
2022-12-18T07:08:31.051Z,6.95
2022-12-18T07:10:03.101Z,6.95
2022-12-18T07:11:35.005Z,6.96
2022-12-18T07:13:06.788Z,6.95
2022-12-18T07:14:38.343Z,6.90
2022-12-18T07:16:17.130Z,6.92
2022-12-18T07:17:50.239Z,6.95
2022-12-18T07:19:21.870Z,6.97
2022-12-18T07:20:54.111Z,7.03
2022-12-18T07:22:28.821Z,7.06
2022-12-18T07:24:01.068Z,7.06
2022-12-18T07:25:35.909Z,7.07
2022-12-18T07:27:07.650Z,7.07
2022-12-18T07:28:40.101Z,7.12
2022-12-18T07:30:11.815Z,7.13
2022-12-18T07:31:43.554Z,7.13
2022-12-18T07:33:15.408Z,7.13
2022-12-18T07:34:47.051Z,7.13
2022-12-18T07:36:19.057Z,7.13
2022-12-18T07:37:50.733Z,7.11
2022-12-18T07:39:22.452Z,7.15
2022-12-18T07:40:54.054Z,7.15
2022-12-18T07:42:31.775Z,7.22
2022-12-18T07:44:03.455Z,7.19
2022-12-18T07:45:35.263Z,7.17
2022-12-18T07:47:11.773Z,7.17
2022-12-18T07:48:45.231Z,7.20
2022-12-18T07:50:22.428Z,7.19
2022-12-18T07:51:55.176Z,7.17
2022-12-18T07:53:27.757Z,7.14
2022-12-18T07:54:59.390Z,7.17
2022-12-18T07:56:31.652Z,7.22
2022-12-18T07:58:06.379Z,7.25
2022-12-18T07:59:38.334Z,7.24
2022-12-18T08:01:11.033Z,7.19
2022-12-18T08:02:43.340Z,7.13
2022-12-18T08:04:15.885Z,7.11
2022-12-18T08:05:47.486Z,7.10
2022-12-18T08:07:19.477Z,7.12
2022-12-18T08:08:54.719Z,7.14
2022-12-18T08:10:26.660Z,7.12
2022-12-18T08:11:58.269Z,7.12
2022-12-18T08:13:30.185Z,7.11
2022-12-18T08:15:01.838Z,7.14
2022-12-18T08:16:33.601Z,7.15
2022-12-18T08:18:06.538Z,7.15
2022-12-18T08:19:40.738Z,7.14
2022-12-18T08:21:16.386Z,7.14
2022-12-18T08:22:48.025Z,7.14
2022-12-18T08:24:19.736Z,7.16
2022-12-18T08:25:52.369Z,7.18
2022-12-18T08:27:30.955Z,7.16
2022-12-18T08:29:05.437Z,7.13
2022-12-18T08:30:37.253Z,7.12
2022-12-18T08:32:09.042Z,7.09
2022-12-18T08:33:41.618Z,7.06
2022-12-18T08:35:17.493Z,7.05
2022-12-18T08:36:50.221Z,7.05
2022-12-18T08:38:22.154Z,7.05
2022-12-18T08:39:54.231Z,7.07
2022-12-18T08:41:26.045Z,7.11
2022-12-18T08:43:17.771Z,7.11
2022-12-18T08:44:49.325Z,7.09
2022-12-18T08:46:21.331Z,7.11
2022-12-18T08:47:53.089Z,7.15
2022-12-18T08:49:24.627Z,7.19
2022-12-18T08:50:59.536Z,7.19
2022-12-18T08:52:32.545Z,7.22
2022-12-18T08:54:04.178Z,7.23
2022-12-18T08:55:37.969Z,7.24
2022-12-18T08:57:09.661Z,7.22
2022-12-18T08:58:41.576Z,7.18
2022-12-18T09:00:14.422Z,7.18
2022-12-18T09:01:46.892Z,7.20
2022-12-18T09:03:19.060Z,7.22
2022-12-18T09:04:56.970Z,7.20
2022-12-18T09:06:29.664Z,7.22
2022-12-18T09:08:01.374Z,7.26
2022-12-18T09:09:32.917Z,7.28
2022-12-18T09:11:04.632Z,7.28
2022-12-18T09:12:36.381Z,7.27
2022-12-18T09:14:09.056Z,7.22
2022-12-18T09:15:44.113Z,7.21
2022-12-18T09:17:15.995Z,7.19
2022-12-18T09:18:47.991Z,7.26
2022-12-18T09:20:19.682Z,7.32
2022-12-18T09:21:51.304Z,7.33
2022-12-18T09:23:23.068Z,7.34
2022-12-18T09:24:55.073Z,7.37
2022-12-18T09:26:26.826Z,7.39
2022-12-18T09:27:58.498Z,7.43
2022-12-18T09:29:30.223Z,7.47
2022-12-18T09:31:05.144Z,7.55
2022-12-18T09:32:36.707Z,7.60
2022-12-18T09:34:08.398Z,7.67
2022-12-18T09:35:40.316Z,7.70
2022-12-18T09:37:11.989Z,7.72
2022-12-18T09:38:43.690Z,7.74
2022-12-18T09:40:16.210Z,7.75
2022-12-18T09:41:52.192Z,7.77
2022-12-18T09:43:44.559Z,7.79
2022-12-18T09:45:16.402Z,7.76
2022-12-18T09:46:50.255Z,7.81
2022-12-18T09:48:27.005Z,7.89
2022-12-18T09:50:17.412Z,7.92
2022-12-18T09:52:07.742Z,7.97
2022-12-18T09:53:39.835Z,7.90
2022-12-18T09:55:14.569Z,7.81
2022-12-18T09:56:46.422Z,7.74
2022-12-18T09:58:18.115Z,7.70
2022-12-18T10:00:12.662Z,7.63
2022-12-18T10:01:44.863Z,7.63
2022-12-18T10:03:18.960Z,7.69
2022-12-18T10:05:00.860Z,7.70
2022-12-18T10:06:38.374Z,7.73
2022-12-18T10:08:45.578Z,7.73
2022-12-18T10:10:17.243Z,7.79
2022-12-18T10:11:48.798Z,7.86
2022-12-18T10:13:20.370Z,7.91
2022-12-18T10:14:55.486Z,7.90
2022-12-18T10:16:29.227Z,7.90
2022-12-18T10:18:22.075Z,7.92
2022-12-18T10:20:11.095Z,7.95
2022-12-18T10:21:45.356Z,7.93
2022-12-18T10:23:34.761Z,7.91
2022-12-18T10:25:23.335Z,7.89
2022-12-18T10:26:56.429Z,7.94
2022-12-18T10:28:27.905Z,8.03
2022-12-18T10:29:59.555Z,8.05
2022-12-18T10:31:31.565Z,8.08
2022-12-18T10:33:03.798Z,8.09
2022-12-18T10:34:35.564Z,8.12
2022-12-18T10:36:07.579Z,8.15
2022-12-18T10:37:39.235Z,8.17
2022-12-18T10:39:17.563Z,8.14
2022-12-18T10:40:52.525Z,8.10
2022-12-18T10:42:24.098Z,8.05
2022-12-18T10:44:14.496Z,8.02
2022-12-18T10:45:50.951Z,8.05
2022-12-18T10:47:22.668Z,7.96
2022-12-18T10:48:55.301Z,7.93
2022-12-18T10:50:47.194Z,7.93
2022-12-18T10:52:22.881Z,7.90
2022-12-18T10:53:56.499Z,7.93
2022-12-18T10:55:30.489Z,7.96
2022-12-18T10:57:20.845Z,7.97
2022-12-18T10:59:01.471Z,7.97
2022-12-18T11:00:33.077Z,7.99
2022-12-18T11:02:08.442Z,7.98
2022-12-18T11:03:40.313Z,7.97
2022-12-18T11:05:31.283Z,7.90
2022-12-18T11:07:04.204Z,7.90
2022-12-18T11:08:36.127Z,7.99
2022-12-18T11:10:16.457Z,8.08
2022-12-18T11:11:53.911Z,8.14
2022-12-18T11:13:26.315Z,8.13
2022-12-18T11:14:58.899Z,8.09
2022-12-18T11:16:32.057Z,8.04
2022-12-18T11:18:03.868Z,8.05
2022-12-18T11:19:40.974Z,8.11
2022-12-18T11:21:13.065Z,8.14
2022-12-18T11:22:44.804Z,8.18
2022-12-18T11:24:23.526Z,8.22
2022-12-18T11:25:59.370Z,8.31
2022-12-18T11:27:31.085Z,8.34
2022-12-18T11:29:14.494Z,8.32
2022-12-18T11:30:46.192Z,8.29
2022-12-18T11:32:27.033Z,8.24
2022-12-18T11:34:30.617Z,8.21
2022-12-18T11:36:06.155Z,8.25
2022-12-18T11:37:40.725Z,8.25
2022-12-18T11:39:32.837Z,8.28
2022-12-18T11:41:23.135Z,8.33
2022-12-18T11:43:17.985Z,8.32
2022-12-18T11:44:51.637Z,8.26
2022-12-18T11:46:33.835Z,8.26
2022-12-18T11:48:16.187Z,8.21
2022-12-18T11:49:49.299Z,8.12
2022-12-18T11:51:33.204Z,8.08
2022-12-18T11:53:06.425Z,8.05
2022-12-18T11:54:38.280Z,8.03
2022-12-18T11:56:29.875Z,8.04
2022-12-18T11:58:13.529Z,7.98
2022-12-18T11:59:57.237Z,7.92
2022-12-18T12:01:37.612Z,7.82
2022-12-18T12:03:16.935Z,7.81
2022-12-18T12:04:54.395Z,7.77
2022-12-18T12:06:29.070Z,7.80
2022-12-18T12:08:00.859Z,7.79
2022-12-18T12:09:52.081Z,7.78
2022-12-18T12:11:30.062Z,7.79
2022-12-18T12:13:01.654Z,7.75
2022-12-18T12:14:39.844Z,7.69
2022-12-18T12:16:11.680Z,7.67
2022-12-18T12:18:11.064Z,7.64
2022-12-18T12:19:49.559Z,7.59
2022-12-18T12:21:24.365Z,7.54
2022-12-18T12:22:59.233Z,7.51
2022-12-18T12:24:33.534Z,7.46
2022-12-18T12:26:12.740Z,7.40
2022-12-18T12:27:58.683Z,7.40
2022-12-18T12:29:34.166Z,7.38
2022-12-18T12:31:05.863Z,7.35
2022-12-18T12:32:41.340Z,7.37
2022-12-18T12:34:18.494Z,7.44
2022-12-18T12:36:09.439Z,7.49
2022-12-18T12:37:59.966Z,7.47
2022-12-18T12:39:38.829Z,7.45
2022-12-18T12:41:31.331Z,7.45
2022-12-18T12:43:14.039Z,7.45
2022-12-18T12:44:52.759Z,7.45
2022-12-18T12:46:27.314Z,7.47
2022-12-18T12:47:58.854Z,7.49
2022-12-18T12:49:33.463Z,7.50
2022-12-18T12:51:09.967Z,7.51
2022-12-18T12:52:43.869Z,7.51
2022-12-18T12:54:20.679Z,7.50
2022-12-18T12:55:53.685Z,7.57
2022-12-18T12:57:44.784Z,7.62
2022-12-18T12:59:18.393Z,7.58
2022-12-18T13:01:08.424Z,7.69
2022-12-18T13:02:52.353Z,7.78
2022-12-18T13:04:34.030Z,7.78
2022-12-18T13:06:10.014Z,7.82
2022-12-18T13:07:47.946Z,7.91
2022-12-18T13:09:19.713Z,7.97
2022-12-18T13:11:11.932Z,8.04
2022-12-18T13:12:57.154Z,8.08
2022-12-18T13:14:29.407Z,8.11
2022-12-18T13:16:05.810Z,8.14
2022-12-18T13:17:38.276Z,8.13
2022-12-18T13:19:19.860Z,8.15
2022-12-18T13:21:03.180Z,8.16
2022-12-18T13:22:39.501Z,8.16
2022-12-18T13:24:21.622Z,8.17
2022-12-18T13:25:56.973Z,8.23
2022-12-18T13:27:44.364Z,8.23
2022-12-18T13:29:35.852Z,8.19
2022-12-18T13:31:07.987Z,8.12
2022-12-18T13:32:39.718Z,8.11
2022-12-18T13:34:26.098Z,8.08
2022-12-18T13:36:02.871Z,8.10
2022-12-18T13:37:40.901Z,8.10
2022-12-18T13:39:23.279Z,8.14
2022-12-18T13:41:21.964Z,8.20
2022-12-18T13:43:12.327Z,8.21
2022-12-18T13:44:44.692Z,8.18
2022-12-18T13:46:22.492Z,8.17
2022-12-18T13:47:54.520Z,8.13
2022-12-18T13:49:38.575Z,8.11
2022-12-18T13:51:11.338Z,8.06
2022-12-18T13:52:43.232Z,8.05
2022-12-18T13:54:19.262Z,8.04
2022-12-18T13:55:51.104Z,8.01
2022-12-18T13:57:27.313Z,7.94
2022-12-18T13:59:25.330Z,7.81
2022-12-18T14:00:57.747Z,7.74
2022-12-18T14:02:29.887Z,7.66
2022-12-18T14:04:20.440Z,7.60
2022-12-18T14:05:55.572Z,7.55
2022-12-18T14:07:27.542Z,7.57
2022-12-18T14:09:03.636Z,7.60
2022-12-18T14:10:48.919Z,7.64
2022-12-18T14:12:43.889Z,7.68
2022-12-18T14:14:20.045Z,7.63
2022-12-18T14:15:51.577Z,7.67
2022-12-18T14:17:23.102Z,7.65
2022-12-18T14:18:57.569Z,7.62
2022-12-18T14:20:34.287Z,7.54
2022-12-18T14:22:05.907Z,7.53
2022-12-18T14:23:40.689Z,7.52
2022-12-18T14:25:18.577Z,7.52
2022-12-18T14:26:51.001Z,7.51
2022-12-18T14:28:25.950Z,7.48
2022-12-18T14:29:59.337Z,7.45
2022-12-18T14:31:34.020Z,7.43
2022-12-18T14:33:12.007Z,7.41
2022-12-18T14:34:45.587Z,7.39
2022-12-18T14:36:18.198Z,7.35
2022-12-18T14:37:49.777Z,7.33
2022-12-18T14:39:21.514Z,7.29
2022-12-18T14:40:59.551Z,7.25
2022-12-18T14:42:31.097Z,7.21
2022-12-18T14:44:06.288Z,7.22
2022-12-18T14:45:44.879Z,7.23
2022-12-18T14:47:16.976Z,7.19
2022-12-18T14:48:49.195Z,7.16
2022-12-18T14:50:20.976Z,7.15
2022-12-18T14:51:59.355Z,7.10
2022-12-18T14:53:38.134Z,7.09
2022-12-18T14:55:19.043Z,7.08
2022-12-18T14:56:52.473Z,7.04
2022-12-18T14:58:24.061Z,7.06
2022-12-18T14:59:56.695Z,7.05
2022-12-18T15:01:29.612Z,7.01
2022-12-18T15:03:01.377Z,6.98
2022-12-18T15:04:33.173Z,6.92
2022-12-18T15:06:26.344Z,6.91
2022-12-18T15:07:58.725Z,6.87
2022-12-18T15:09:30.376Z,6.85
2022-12-18T15:11:01.903Z,6.84
2022-12-18T15:12:35.387Z,6.82
2022-12-18T15:14:25.689Z,6.82
2022-12-18T15:15:58.603Z,6.75
2022-12-18T15:17:30.368Z,6.75
2022-12-18T15:19:01.921Z,6.80
2022-12-18T15:20:34.214Z,6.79
2022-12-18T15:22:06.787Z,6.80
2022-12-18T15:23:47.499Z,6.81
2022-12-18T15:25:25.393Z,6.81
2022-12-18T15:26:57.359Z,6.79
2022-12-18T15:28:35.289Z,6.78
2022-12-18T15:30:10.020Z,6.74
2022-12-18T15:31:41.625Z,6.74
2022-12-18T15:33:24.589Z,6.74
2022-12-18T15:35:14.572Z,6.75
2022-12-18T15:36:46.434Z,6.72
2022-12-18T15:38:18.029Z,6.74
2022-12-18T15:39:49.672Z,6.74
2022-12-18T15:41:24.691Z,6.71
2022-12-18T15:43:15.355Z,6.67
2022-12-18T15:44:47.207Z,6.68
2022-12-18T15:46:19.637Z,6.67
2022-12-18T15:47:51.746Z,6.66
2022-12-18T15:49:23.322Z,6.64
2022-12-18T15:50:56.692Z,6.64
2022-12-18T15:52:28.759Z,6.62
2022-12-18T15:54:01.259Z,6.60
2022-12-18T15:55:53.349Z,6.63
2022-12-18T15:57:27.824Z,6.64
2022-12-18T15:58:59.435Z,6.63
2022-12-18T16:00:31.672Z,6.59
2022-12-18T16:02:03.453Z,6.54
2022-12-18T16:03:35.656Z,6.54
2022-12-18T16:05:12.103Z,6.56
2022-12-18T16:07:05.677Z,6.56
2022-12-18T16:08:36.246Z,6.60
2022-12-18T16:10:08.476Z,6.54
2022-12-18T16:11:41.722Z,6.51
2022-12-18T16:13:14.056Z,6.49
2022-12-18T16:14:45.848Z,6.46
2022-12-18T16:16:17.568Z,6.43
2022-12-18T16:17:49.855Z,6.46
2022-12-18T16:19:22.603Z,6.47
2022-12-18T16:20:54.651Z,6.46
2022-12-18T16:22:27.805Z,6.43
2022-12-18T16:23:59.663Z,6.40
2022-12-18T16:25:31.315Z,6.36
2022-12-18T16:27:03.051Z,6.32
2022-12-18T16:28:34.709Z,6.31
2022-12-18T16:30:06.680Z,6.34
2022-12-18T16:31:38.887Z,6.37
2022-12-18T16:33:11.457Z,6.37
2022-12-18T16:34:44.136Z,6.39
2022-12-18T16:36:15.817Z,6.41
2022-12-18T16:37:47.432Z,6.38
2022-12-18T16:39:18.979Z,6.35
2022-12-18T16:41:08.914Z,6.30
2022-12-18T16:42:40.760Z,6.28
2022-12-18T16:44:12.578Z,6.33
2022-12-18T16:45:44.318Z,6.35
2022-12-18T16:47:16.073Z,6.32
2022-12-18T16:48:47.809Z,6.26
2022-12-18T16:50:19.451Z,6.26
2022-12-18T16:51:50.964Z,6.28
2022-12-18T16:53:22.460Z,6.29
2022-12-18T16:54:54.527Z,6.33
2022-12-18T16:56:26.224Z,6.36
2022-12-18T16:57:57.940Z,6.38
2022-12-18T16:59:29.813Z,6.40
2022-12-18T17:01:01.704Z,6.38
2022-12-18T17:02:33.721Z,6.39
2022-12-18T17:04:06.515Z,6.40
2022-12-18T17:05:38.137Z,6.37
2022-12-18T17:07:09.934Z,6.39
2022-12-18T17:08:41.501Z,6.37
2022-12-18T17:10:13.462Z,6.34
2022-12-18T17:11:45.014Z,6.34
2022-12-18T17:13:17.256Z,6.31
2022-12-18T17:14:51.188Z,6.28
2022-12-18T17:16:22.915Z,6.26
2022-12-18T17:17:54.481Z,6.26
2022-12-18T17:19:27.820Z,6.20
2022-12-18T17:21:00.529Z,6.15
2022-12-18T17:22:32.121Z,6.15
2022-12-18T17:24:03.995Z,6.16
2022-12-18T17:25:35.533Z,6.14
2022-12-18T17:27:08.924Z,6.12
2022-12-18T17:28:40.791Z,6.13
2022-12-18T17:30:12.603Z,6.14
2022-12-18T17:31:44.373Z,6.14
2022-12-18T17:33:15.970Z,6.15
2022-12-18T17:34:47.685Z,6.06
2022-12-18T17:36:19.691Z,5.93
2022-12-18T17:37:51.361Z,5.82
2022-12-18T17:39:22.849Z,5.77
2022-12-18T17:40:55.041Z,5.76
2022-12-18T17:42:26.708Z,5.74
2022-12-18T17:43:58.975Z,5.73
2022-12-18T17:45:31.088Z,5.77
2022-12-18T17:47:03.170Z,5.78
2022-12-18T17:48:34.780Z,5.79
2022-12-18T17:50:06.584Z,5.77
2022-12-18T17:51:38.443Z,5.74
2022-12-18T17:53:10.024Z,5.68
2022-12-18T17:54:42.274Z,5.69
2022-12-18T17:56:15.005Z,5.74
2022-12-18T17:57:46.579Z,5.75
2022-12-18T17:59:18.102Z,5.81
2022-12-18T18:00:49.803Z,5.84
2022-12-18T18:02:21.652Z,5.85
2022-12-18T18:03:56.225Z,5.85
2022-12-18T18:05:28.218Z,5.87
2022-12-18T18:06:59.946Z,5.87
2022-12-18T18:08:32.170Z,5.76
2022-12-18T18:10:03.939Z,5.67
2022-12-18T18:11:54.009Z,5.61
2022-12-18T18:13:47.021Z,5.60
2022-12-18T18:15:19.230Z,5.58
2022-12-18T18:16:51.101Z,5.58
2022-12-18T18:18:22.660Z,5.58
2022-12-18T18:19:56.082Z,5.58
2022-12-18T18:21:28.067Z,5.57
2022-12-18T18:23:00.115Z,5.54
2022-12-18T18:24:31.909Z,5.52
2022-12-18T18:26:07.246Z,5.56
2022-12-18T18:27:39.665Z,5.60
2022-12-18T18:29:15.182Z,5.65
2022-12-18T18:30:47.231Z,5.68
2022-12-18T18:32:19.020Z,5.67
2022-12-18T18:33:50.568Z,5.68
2022-12-18T18:35:52.297Z,5.72
2022-12-18T18:37:13.922Z,5.77
2022-12-18T18:38:48.538Z,5.82
2022-12-18T18:40:21.660Z,5.85
2022-12-18T18:41:53.450Z,5.92
2022-12-18T18:43:24.908Z,5.92
2022-12-18T18:44:56.441Z,5.94
2022-12-18T18:46:28.751Z,5.94
2022-12-18T18:48:00.416Z,5.94
2022-12-18T18:49:32.086Z,5.95
2022-12-18T18:51:04.874Z,5.95
2022-12-18T18:52:36.665Z,5.96
2022-12-18T18:54:10.173Z,5.99
2022-12-18T18:55:42.410Z,5.99
2022-12-18T18:57:24.242Z,6.00
2022-12-18T18:58:57.984Z,5.95
2022-12-18T19:00:29.620Z,5.92
2022-12-18T19:02:04.418Z,5.89
2022-12-18T19:03:37.556Z,5.88
2022-12-18T19:05:09.796Z,5.82
2022-12-18T19:06:42.882Z,5.77
2022-12-18T19:08:14.656Z,5.71
2022-12-18T19:09:51.894Z,5.60
2022-12-18T19:11:42.004Z,5.52
2022-12-18T19:13:24.600Z,5.45
2022-12-18T19:14:56.382Z,5.37
2022-12-18T19:16:28.071Z,5.30
2022-12-18T19:18:00.056Z,5.28
2022-12-18T19:19:31.802Z,5.24
2022-12-18T19:21:04.003Z,5.26
2022-12-18T19:22:35.768Z,5.28
2022-12-18T19:24:07.759Z,5.24
2022-12-18T19:25:42.093Z,5.19
2022-12-18T19:27:14.176Z,5.21
2022-12-18T19:28:45.783Z,5.23
2022-12-18T19:30:17.425Z,5.22
2022-12-18T19:31:49.638Z,5.29
2022-12-18T19:33:48.401Z,5.33
2022-12-18T19:35:14.666Z,5.34
2022-12-18T19:36:46.919Z,5.36
2022-12-18T19:38:18.677Z,5.41
2022-12-18T19:39:50.735Z,5.44
2022-12-18T19:41:22.865Z,5.40
2022-12-18T19:42:54.504Z,5.41
2022-12-18T19:44:26.839Z,5.37
2022-12-18T19:45:58.479Z,5.33
2022-12-18T19:47:32.862Z,5.25
2022-12-18T19:49:04.923Z,5.22
2022-12-18T19:50:40.480Z,5.16
2022-12-18T19:52:12.201Z,5.09
2022-12-18T19:53:43.980Z,5.02
2022-12-18T19:55:15.885Z,4.94
2022-12-18T19:56:47.495Z,4.92
2022-12-18T19:58:19.021Z,4.92
2022-12-18T19:59:54.041Z,4.93
2022-12-18T20:01:26.008Z,4.92
2022-12-18T20:03:03.943Z,4.92
2022-12-18T20:04:42.204Z,4.90
2022-12-18T20:06:15.750Z,4.92
2022-12-18T20:07:47.383Z,4.93
2022-12-18T20:09:19.121Z,4.93
2022-12-18T20:10:50.844Z,4.88
2022-12-18T20:12:23.267Z,4.76
2022-12-18T20:13:55.071Z,4.69
2022-12-18T20:15:26.690Z,4.66
2022-12-18T20:16:58.300Z,4.57
2022-12-18T20:18:31.938Z,4.49
2022-12-18T20:20:03.907Z,4.47
2022-12-18T20:21:36.052Z,4.46
2022-12-18T20:23:07.998Z,4.42
2022-12-18T20:24:40.112Z,4.39
2022-12-18T20:26:11.669Z,4.37
2022-12-18T20:27:43.546Z,4.41
2022-12-18T20:29:15.059Z,4.46
2022-12-18T20:30:46.693Z,4.50
2022-12-18T20:32:18.551Z,4.55
2022-12-18T20:33:51.023Z,4.63
2022-12-18T20:35:23.973Z,4.66
2022-12-18T20:36:56.070Z,4.71
2022-12-18T20:38:29.769Z,4.77
2022-12-18T20:40:02.484Z,4.78
2022-12-18T20:41:38.076Z,4.84
2022-12-18T20:43:16.853Z,4.80
2022-12-18T20:44:48.761Z,4.81
2022-12-18T20:46:20.651Z,4.77
2022-12-18T20:47:56.206Z,4.76
2022-12-18T20:49:28.037Z,4.74
2022-12-18T20:51:05.811Z,4.73
2022-12-18T20:52:37.454Z,4.75
2022-12-18T20:54:11.760Z,4.72
2022-12-18T20:55:43.755Z,4.72
2022-12-18T20:57:15.657Z,4.67
2022-12-18T20:58:47.198Z,4.64